Stephen L. — WDE7070 — position and weather

sailwx.info

Track history (hours):
 
Tides and Currents Weather Stations Pressure Air Temp Water Temp Dewpoint Dewpoint Depression Visibility Wind Speed Wind Dir Waves Ship Positions

Stephen L.

Owner: TRIPLE S MARINE, LLC, MORGAN CITY, LA. More information available from US FCC via Universal Licensing System and Coast Guard Vessel Documentation Center.

Last reported at 2015-Apr-26 06:31 UTC. Time now 2015-Apr-28 06:47 UTC.
Position N 38°53' W 084°14'.

Length 20 m.

Type: Ship. MMSI: 367388580.

Date/timePositionNaut miles runAvg speedWind from/ knotsBaromVisibWave heightAir tempDewpointWater temp
2015-Apr-26 06:31N 38°53' W 084°14'6 5.8
2015-Apr-26 05:33N 38°58' W 084°18'5 5.4
2015-Apr-26 04:33N 39°02' W 084°22'5 4.8
2015-Apr-26 03:33N 39°06' W 084°26'4 3.5
2015-Apr-26 02:33N 39°06' W 084°31'5 4.5
2015-Apr-26 01:33N 39°04' W 084°36'  
2015-Apr-22 21:33N 39°05' W 084°38'8 7.7
2015-Apr-22 20:32N 39°07' W 084°29'7 7.1
2015-Apr-22 19:33N 39°02' W 084°22'  
Track history (hours):
 
Tides and Currents Weather Stations Pressure Air Temp Water Temp Dewpoint Dewpoint Depression Visibility Wind Speed Wind Dir Waves Ship Positions

Stephen L.

Owner: TRIPLE S MARINE, LLC, MORGAN CITY, LA. More information available from US FCC via Universal Licensing System and Coast Guard Vessel Documentation Center.

Last reported at 2015-Apr-26 06:31 UTC. Time now 2015-Apr-28 06:47 UTC.
Position N 38°53' W 084°14'.

Length 20 m.

Type: Ship. MMSI: 367388580.

Date/timePositionNaut miles runAvg speedWind from/ knotsBaromVisibWave heightAir tempDewpointWater temp
2015-Apr-26 06:31N 38°53' W 084°14'6 5.8
2015-Apr-26 05:33N 38°58' W 084°18'5 5.4
2015-Apr-26 04:33N 39°02' W 084°22'5 4.8
2015-Apr-26 03:33N 39°06' W 084°26'4 3.5
2015-Apr-26 02:33N 39°06' W 084°31'5 4.5
2015-Apr-26 01:33N 39°04' W 084°36'  
2015-Apr-22 21:33N 39°05' W 084°38'8 7.7
2015-Apr-22 20:32N 39°07' W 084°29'7 7.1
2015-Apr-22 19:33N 39°02' W 084°22'  

Dump ship's entire track history